ADDS METAR Data INFO
IDs: Format: Raw Decoded Include TAF

Data at: 1950 UTC 14 Aug 2018

METAR for:KRSW (Ft Myers/SW Florida, FL, US)
Text:KRSW 141934Z 13005KT 10SM -TSRA BKN043 BKN060 OVC110 24/22 A3007 RMK AO2 LTG DSNT NW-NE RAB09 TSB1857E22B34 P0004 T02440217
Temperature: 24.4°C ( 76°F)
Dewpoint: 21.7°C ( 71°F) [RH = 85%]
Pressure (altimeter):30.07 inches Hg (1018.4 mb)
Winds:from the SE (130 degrees) at 6 MPH (5 knots; 2.6 m/s)
Visibility:10 or more sm (16+ km)
Ceiling:4300 feet AGL
Clouds: broken clouds at 4300 feet AGL, broken clouds at 6000 feet AGL, overcast cloud deck at 11000 feet AGL
Weather:-TSRA (light rain associated with thunderstorm(s))